createdAt,value
2022-12-06T00:02:47.889Z,56.69
2022-12-06T00:07:50.488Z,56.49
2022-12-06T00:12:53.213Z,56.81
2022-12-06T00:17:55.880Z,56.29
2022-12-06T00:22:58.507Z,56.57
2022-12-06T00:28:00.948Z,55.90
2022-12-06T00:33:03.512Z,56.32
2022-12-06T00:38:06.009Z,56.39
2022-12-06T00:43:08.508Z,56.80
2022-12-06T00:48:11.244Z,56.73
2022-12-06T00:53:13.674Z,57.07
2022-12-06T00:58:16.222Z,56.76
2022-12-06T01:03:18.702Z,57.06
2022-12-06T01:08:21.009Z,57.10
2022-12-06T01:13:24.899Z,56.62
2022-12-06T01:18:27.130Z,57.13
2022-12-06T01:23:29.603Z,57.47
2022-12-06T01:28:31.900Z,57.50
2022-12-06T01:33:34.694Z,57.59
2022-12-06T01:38:37.216Z,57.53
2022-12-06T01:43:44.199Z,58.01
2022-12-06T01:48:49.296Z,57.26
2022-12-06T01:53:53.797Z,57.96
2022-12-06T01:59:00.104Z,57.69
2022-12-06T02:04:03.104Z,57.89
2022-12-06T02:09:08.389Z,58.34
2022-12-06T02:14:16.485Z,58.08
2022-12-06T02:19:43.692Z,57.99
2022-12-06T02:25:07.552Z,58.15
2022-12-06T02:30:18.962Z,58.24
2022-12-06T02:35:31.976Z,58.41
2022-12-06T02:40:42.378Z,58.03
2022-12-06T02:45:53.853Z,58.67
2022-12-06T02:51:07.900Z,58.76
2022-12-06T02:56:10.553Z,58.89
2022-12-06T03:01:23.677Z,59.06
2022-12-06T03:06:44.436Z,58.91
2022-12-06T03:12:12.937Z,59.02
2022-12-06T03:17:39.045Z,59.34
2022-12-06T03:22:49.400Z,59.25
2022-12-06T03:27:53.937Z,59.04
2022-12-06T03:32:56.592Z,58.76
2022-12-06T03:38:09.685Z,59.04
2022-12-06T03:43:12.276Z,58.90
2022-12-06T03:48:21.365Z,58.89
2022-12-06T03:53:23.994Z,58.83
2022-12-06T03:58:26.549Z,59.04
2022-12-06T04:03:28.881Z,59.12
2022-12-06T04:08:31.533Z,59.14
2022-12-06T04:13:34.112Z,59.00
2022-12-06T04:18:36.633Z,58.72
2022-12-06T04:23:41.594Z,58.43
2022-12-06T04:29:02.412Z,58.29
2022-12-06T04:34:23.730Z,58.55
2022-12-06T04:39:26.482Z,59.09
2022-12-06T04:44:28.942Z,59.30
2022-12-06T04:49:31.474Z,59.26
2022-12-06T04:54:34.634Z,59.03
2022-12-06T04:59:42.410Z,59.80
2022-12-06T05:04:44.828Z,60.11
2022-12-06T05:09:47.284Z,59.64
2022-12-06T05:14:49.714Z,60.52
2022-12-06T05:19:52.119Z,60.11
2022-12-06T05:24:54.379Z,59.71
2022-12-06T05:29:56.935Z,59.94
2022-12-06T05:34:59.470Z,60.30
2022-12-06T05:40:02.377Z,60.13
2022-12-06T05:45:06.268Z,60.25
2022-12-06T05:50:09.278Z,60.29
2022-12-06T05:55:11.770Z,60.32
2022-12-06T06:00:16.191Z,60.23
2022-12-06T06:05:21.632Z,60.04
2022-12-06T06:10:24.748Z,59.32
2022-12-06T06:15:27.230Z,59.90
2022-12-06T06:20:29.858Z,59.84
2022-12-06T06:25:32.384Z,59.62
2022-12-06T06:30:34.894Z,59.40
2022-12-06T06:35:38.953Z,59.89
2022-12-06T06:40:41.620Z,59.89
2022-12-06T06:45:58.624Z,59.29
2022-12-06T06:51:10.047Z,59.55
2022-12-06T06:56:12.529Z,59.25
2022-12-06T07:01:19.257Z,58.78
2022-12-06T07:06:21.838Z,59.26
2022-12-06T07:11:24.311Z,60.44
2022-12-06T07:16:26.805Z,59.69
2022-12-06T07:21:29.339Z,59.58
2022-12-06T07:26:31.885Z,59.51
2022-12-06T07:31:34.814Z,59.22
2022-12-06T07:36:37.495Z,58.08
2022-12-06T07:41:58.805Z,57.94
2022-12-06T07:47:24.547Z,57.06
2022-12-06T07:52:31.802Z,57.55
2022-12-06T07:57:38.666Z,58.04
2022-12-06T08:02:45.852Z,57.64
2022-12-06T08:07:48.460Z,57.87
2022-12-06T08:12:50.996Z,57.70
2022-12-06T08:17:53.728Z,57.71
2022-12-06T08:22:56.161Z,57.92
2022-12-06T08:27:58.616Z,57.92
2022-12-06T08:33:01.139Z,57.39
2022-12-06T08:38:03.731Z,57.99
2022-12-06T08:43:06.483Z,57.93
2022-12-06T08:48:09.032Z,57.33
2022-12-06T08:53:21.697Z,57.46
2022-12-06T08:58:24.211Z,56.66
2022-12-06T09:03:26.960Z,57.27
2022-12-06T09:08:29.435Z,57.25
2022-12-06T09:13:32.049Z,56.82
2022-12-06T09:18:34.785Z,57.47
2022-12-06T09:23:40.385Z,56.87
2022-12-06T09:28:44.869Z,56.12
2022-12-06T09:33:47.713Z,56.51
2022-12-06T09:38:58.614Z,56.47
2022-12-06T09:44:13.097Z,55.69
2022-12-06T09:49:54.202Z,55.52
2022-12-06T09:55:23.563Z,55.73
2022-12-06T10:00:30.184Z,54.88
2022-12-06T10:05:35.914Z,54.42
2022-12-06T10:11:20.012Z,53.82
2022-12-06T10:16:36.801Z,53.23
2022-12-06T10:22:17.666Z,52.99
2022-12-06T10:27:34.944Z,52.61
2022-12-06T10:32:54.611Z,52.74
2022-12-06T10:38:12.420Z,52.11
2022-12-06T10:43:48.091Z,52.05
2022-12-06T10:49:06.915Z,51.90
2022-12-06T10:54:41.301Z,51.56
2022-12-06T10:59:54.829Z,51.39
2022-12-06T11:05:03.078Z,51.60
2022-12-06T11:10:19.221Z,52.00
2022-12-06T11:15:27.085Z,51.46
2022-12-06T11:20:38.333Z,51.71
2022-12-06T11:26:07.037Z,51.32
2022-12-06T11:31:50.997Z,51.44
2022-12-06T11:37:00.200Z,51.12
2022-12-06T11:42:05.190Z,51.61
2022-12-06T11:47:08.193Z,51.74
2022-12-06T11:52:44.362Z,51.49
2022-12-06T11:57:58.669Z,51.21
2022-12-06T12:03:01.030Z,51.54
2022-12-06T12:08:32.724Z,51.34
2022-12-06T12:13:44.959Z,51.41
2022-12-06T12:19:17.112Z,51.38
2022-12-06T12:25:18.452Z,51.97
2022-12-06T12:30:22.675Z,52.04
2022-12-06T12:35:28.363Z,52.17
2022-12-06T12:40:33.908Z,52.50
2022-12-06T12:45:36.566Z,52.88
2022-12-06T12:50:39.132Z,52.74
2022-12-06T12:55:42.171Z,53.00
2022-12-06T13:00:48.344Z,53.26
2022-12-06T13:05:51.842Z,53.69
2022-12-06T13:10:59.494Z,53.76
2022-12-06T13:16:10.144Z,54.02
2022-12-06T13:21:41.568Z,54.06
2022-12-06T13:26:48.613Z,54.49
2022-12-06T13:31:54.565Z,54.82
2022-12-06T13:36:57.264Z,54.83
2022-12-06T13:42:18.043Z,54.88
2022-12-06T13:47:29.375Z,55.32
2022-12-06T13:52:43.825Z,55.38
2022-12-06T13:57:46.166Z,54.91
2022-12-06T14:02:49.110Z,55.11
2022-12-06T14:07:58.418Z,55.26
2022-12-06T14:13:01.936Z,55.04
2022-12-06T14:18:11.054Z,55.00
2022-12-06T14:23:24.598Z,55.20
2022-12-06T14:28:27.051Z,55.60
2022-12-06T14:33:29.783Z,55.51
2022-12-06T14:38:32.315Z,55.42
2022-12-06T14:43:35.764Z,55.32
2022-12-06T14:49:11.248Z,56.30
2022-12-06T14:54:42.457Z,56.04
2022-12-06T15:00:14.282Z,56.06
2022-12-06T15:05:44.759Z,56.25
2022-12-06T15:11:04.900Z,55.81
2022-12-06T15:16:10.364Z,55.97
2022-12-06T15:21:17.902Z,56.11
2022-12-06T15:26:22.384Z,56.16
2022-12-06T15:31:27.524Z,56.13
2022-12-06T15:36:33.453Z,56.17
2022-12-06T15:41:38.463Z,56.38
2022-12-06T15:46:41.646Z,56.58
2022-12-06T15:51:44.877Z,56.73
2022-12-06T15:56:47.893Z,56.54
2022-12-06T16:01:51.454Z,56.65
2022-12-06T16:06:53.944Z,56.65
2022-12-06T16:11:56.852Z,56.95
2022-12-06T16:16:59.348Z,57.62
2022-12-06T16:22:01.832Z,57.36
2022-12-06T16:27:04.332Z,58.06
2022-12-06T16:32:07.837Z,58.35
2022-12-06T16:37:11.891Z,57.97
2022-12-06T16:42:14.474Z,58.53
2022-12-06T16:52:21.460Z,59.44
2022-12-06T16:57:24.073Z,59.89
2022-12-06T17:02:32.632Z,60.11
2022-12-06T17:07:42.513Z,59.47
2022-12-06T17:12:46.459Z,59.72
2022-12-06T17:17:49.415Z,59.89
2022-12-06T17:22:51.943Z,59.77
2022-12-06T17:27:54.874Z,59.55
2022-12-06T17:32:57.401Z,59.84
2022-12-06T17:38:00.825Z,60.12
2022-12-06T17:43:04.231Z,60.19
2022-12-06T17:48:06.895Z,60.19
2022-12-06T17:53:10.475Z,59.86
2022-12-06T17:58:12.994Z,59.81
2022-12-06T18:03:15.543Z,59.50
2022-12-06T18:08:18.104Z,59.64
2022-12-06T18:13:20.571Z,59.92
2022-12-06T18:18:23.188Z,60.01
2022-12-06T18:23:25.654Z,60.46
2022-12-06T18:28:28.261Z,60.28
2022-12-06T18:33:36.656Z,60.64
2022-12-06T18:38:39.011Z,60.67
2022-12-06T18:43:42.491Z,61.31
2022-12-06T18:48:51.347Z,60.54
2022-12-06T18:53:57.027Z,61.49
2022-12-06T18:59:04.339Z,61.22
2022-12-06T19:04:09.590Z,61.24
2022-12-06T19:09:16.467Z,60.99
2022-12-06T19:14:19.080Z,61.48
2022-12-06T19:19:26.973Z,61.25
2022-12-06T19:24:30.202Z,61.20
2022-12-06T19:29:32.725Z,61.04
2022-12-06T19:34:35.238Z,61.55
2022-12-06T19:39:38.620Z,61.41
2022-12-06T19:44:41.147Z,61.36
2022-12-06T19:49:43.629Z,61.08
2022-12-06T19:54:46.144Z,61.12
2022-12-06T19:59:48.642Z,60.95
2022-12-06T20:04:51.031Z,61.07
2022-12-06T20:09:53.578Z,61.10
2022-12-06T20:14:56.090Z,60.97
2022-12-06T20:20:01.726Z,61.12
2022-12-06T20:25:06.303Z,60.80
2022-12-06T20:30:09.844Z,60.94
2022-12-06T20:35:12.429Z,61.47
2022-12-06T20:40:14.945Z,61.01
2022-12-06T20:45:18.944Z,61.26
2022-12-06T20:50:22.521Z,61.67
2022-12-06T20:55:25.063Z,61.68
2022-12-06T21:00:27.502Z,61.87
2022-12-06T21:05:29.817Z,61.47
2022-12-06T21:10:32.236Z,61.49
2022-12-06T21:15:34.824Z,61.45
2022-12-06T21:20:40.506Z,61.36
2022-12-06T21:25:42.925Z,60.81
2022-12-06T21:30:53.082Z,61.12
2022-12-06T21:35:55.917Z,61.36
2022-12-06T21:41:08.373Z,60.91
2022-12-06T21:46:14.170Z,60.73
2022-12-06T21:51:17.047Z,60.76
2022-12-06T21:56:22.189Z,60.72
2022-12-06T22:01:29.882Z,60.78
2022-12-06T22:06:32.827Z,61.06
2022-12-06T22:11:35.809Z,61.31
2022-12-06T22:16:38.327Z,60.68
2022-12-06T22:21:40.855Z,60.59
2022-12-06T22:26:43.315Z,60.76
2022-12-06T22:31:46.295Z,60.19
2022-12-06T22:36:49.154Z,60.37
2022-12-06T22:41:54.097Z,60.31
2022-12-06T22:46:56.626Z,60.22
2022-12-06T22:52:02.127Z,59.73
2022-12-06T22:57:04.607Z,60.06
2022-12-06T23:02:07.212Z,59.79
2022-12-06T23:07:09.723Z,60.23
2022-12-06T23:12:12.205Z,60.66
2022-12-06T23:17:14.694Z,60.49
2022-12-06T23:22:17.194Z,60.13
2022-12-06T23:27:19.648Z,60.30
2022-12-06T23:32:22.198Z,59.96
2022-12-06T23:37:24.632Z,60.02
2022-12-06T23:42:28.244Z,59.97
2022-12-06T23:47:30.614Z,60.39
2022-12-06T23:52:32.912Z,60.06
2022-12-06T23:57:35.374Z,60.11
